sensor_id;sensor_type;location;lat;lon;timestamp;P1;durP1;ratioP1;P2;durP2;ratioP2
15818;SDS011;8010;53.986;12.106;2022-11-20T00:01:06;2.73;;;2.13;;
15818;SDS011;8010;53.986;12.106;2022-11-20T00:03:37;2.80;;;2.17;;
15818;SDS011;8010;53.986;12.106;2022-11-20T00:06:04;5.43;;;2.50;;
15818;SDS011;8010;53.986;12.106;2022-11-20T00:08:31;2.83;;;1.90;;
15818;SDS011;8010;53.986;12.106;2022-11-20T00:10:57;2.63;;;2.00;;
15818;SDS011;8010;53.986;12.106;2022-11-20T00:13:26;3.00;;;2.13;;
15818;SDS011;8010;53.986;12.106;2022-11-20T00:15:56;3.03;;;2.23;;
15818;SDS011;8010;53.986;12.106;2022-11-20T00:18:23;2.40;;;1.90;;
15818;SDS011;8010;53.986;12.106;2022-11-20T00:20:48;2.13;;;1.50;;
15818;SDS011;8010;53.986;12.106;2022-11-20T00:23:14;2.43;;;1.70;;
15818;SDS011;8010;53.986;12.106;2022-11-20T00:25:39;1.70;;;1.50;;
15818;SDS011;8010;53.986;12.106;2022-11-20T00:28:05;4.57;;;1.30;;
15818;SDS011;8010;53.986;12.106;2022-11-20T00:30:30;2.40;;;1.60;;
15818;SDS011;8010;53.986;12.106;2022-11-20T00:32:56;2.37;;;1.67;;
15818;SDS011;8010;53.986;12.106;2022-11-20T00:35:22;2.40;;;1.40;;
15818;SDS011;8010;53.986;12.106;2022-11-20T00:37:48;1.17;;;1.00;;
15818;SDS011;8010;53.986;12.106;2022-11-20T00:40:13;4.30;;;1.43;;
15818;SDS011;8010;53.986;12.106;2022-11-20T00:42:39;1.53;;;1.23;;
15818;SDS011;8010;53.986;12.106;2022-11-20T00:45:04;1.60;;;1.20;;
15818;SDS011;8010;53.986;12.106;2022-11-20T00:47:30;1.83;;;1.13;;
15818;SDS011;8010;53.986;12.106;2022-11-20T00:49:56;2.30;;;1.07;;
15818;SDS011;8010;53.986;12.106;2022-11-20T00:52:21;2.87;;;1.10;;
15818;SDS011;8010;53.986;12.106;2022-11-20T00:54:47;1.10;;;1.00;;
15818;SDS011;8010;53.986;12.106;2022-11-20T00:57:12;2.50;;;1.13;;
15818;SDS011;8010;53.986;12.106;2022-11-20T00:59:38;1.50;;;1.40;;
15818;SDS011;8010;53.986;12.106;2022-11-20T01:02:03;1.50;;;1.10;;
15818;SDS011;8010;53.986;12.106;2022-11-20T01:04:29;2.20;;;1.40;;
15818;SDS011;8010;53.986;12.106;2022-11-20T01:06:54;1.47;;;1.10;;
15818;SDS011;8010;53.986;12.106;2022-11-20T01:09:20;1.50;;;1.30;;
15818;SDS011;8010;53.986;12.106;2022-11-20T01:11:45;2.63;;;1.20;;
15818;SDS011;8010;53.986;12.106;2022-11-20T01:14:13;2.53;;;1.30;;
15818;SDS011;8010;53.986;12.106;2022-11-20T01:16:48;9.43;;;1.43;;
15818;SDS011;8010;53.986;12.106;2022-11-20T01:19:16;1.33;;;1.03;;
15818;SDS011;8010;53.986;12.106;2022-11-20T01:21:45;1.77;;;1.37;;
15818;SDS011;8010;53.986;12.106;2022-11-20T01:24:13;2.53;;;1.30;;
15818;SDS011;8010;53.986;12.106;2022-11-20T01:26:41;2.07;;;1.47;;
15818;SDS011;8010;53.986;12.106;2022-11-20T01:29:15;3.17;;;1.70;;
15818;SDS011;8010;53.986;12.106;2022-11-20T01:31:42;1.73;;;1.43;;
15818;SDS011;8010;53.986;12.106;2022-11-20T01:34:15;2.13;;;1.57;;
15818;SDS011;8010;53.986;12.106;2022-11-20T01:36:42;2.70;;;1.97;;
15818;SDS011;8010;53.986;12.106;2022-11-20T01:39:16;2.47;;;2.03;;
15818;SDS011;8010;53.986;12.106;2022-11-20T01:41:43;3.17;;;2.00;;
15818;SDS011;8010;53.986;12.106;2022-11-20T01:47:18;2.43;;;1.90;;
15818;SDS011;8010;53.986;12.106;2022-11-20T01:49:49;3.67;;;2.00;;
15818;SDS011;8010;53.986;12.106;2022-11-20T01:52:20;2.40;;;1.80;;
15818;SDS011;8010;53.986;12.106;2022-11-20T01:54:52;3.00;;;2.30;;
15818;SDS011;8010;53.986;12.106;2022-11-20T01:57:23;2.83;;;2.10;;
15818;SDS011;8010;53.986;12.106;2022-11-20T01:59:54;3.80;;;2.57;;
15818;SDS011;8010;53.986;12.106;2022-11-20T02:02:26;3.67;;;2.10;;
15818;SDS011;8010;53.986;12.106;2022-11-20T02:04:52;4.20;;;2.40;;
15818;SDS011;8010;53.986;12.106;2022-11-20T02:07:22;4.03;;;2.17;;
15818;SDS011;8010;53.986;12.106;2022-11-20T02:09:48;3.33;;;2.10;;
15818;SDS011;8010;53.986;12.106;2022-11-20T02:12:15;2.30;;;2.10;;
15818;SDS011;8010;53.986;12.106;2022-11-20T02:14:59;2.90;;;2.20;;
15818;SDS011;8010;53.986;12.106;2022-11-20T02:17:25;3.57;;;2.00;;
15818;SDS011;8010;53.986;12.106;2022-11-20T02:19:50;3.73;;;2.60;;
15818;SDS011;8010;53.986;12.106;2022-11-20T02:22:30;5.17;;;1.97;;
15818;SDS011;8010;53.986;12.106;2022-11-20T02:25:00;3.03;;;1.90;;
15818;SDS011;8010;53.986;12.106;2022-11-20T02:27:28;2.77;;;2.00;;
15818;SDS011;8010;53.986;12.106;2022-11-20T02:29:57;2.97;;;2.20;;
15818;SDS011;8010;53.986;12.106;2022-11-20T02:32:30;3.07;;;2.07;;
15818;SDS011;8010;53.986;12.106;2022-11-20T02:34:58;3.13;;;2.17;;
15818;SDS011;8010;53.986;12.106;2022-11-20T02:37:43;3.30;;;2.20;;
15818;SDS011;8010;53.986;12.106;2022-11-20T02:40:09;4.10;;;2.50;;
15818;SDS011;8010;53.986;12.106;2022-11-20T02:42:36;2.67;;;1.83;;
15818;SDS011;8010;53.986;12.106;2022-11-20T02:45:02;3.00;;;2.33;;
15818;SDS011;8010;53.986;12.106;2022-11-20T02:47:29;2.77;;;1.93;;
15818;SDS011;8010;53.986;12.106;2022-11-20T02:49:55;3.67;;;2.00;;
15818;SDS011;8010;53.986;12.106;2022-11-20T02:52:21;2.63;;;1.87;;
15818;SDS011;8010;53.986;12.106;2022-11-20T02:54:47;2.33;;;2.00;;
15818;SDS011;8010;53.986;12.106;2022-11-20T02:57:12;2.60;;;1.83;;
15818;SDS011;8010;53.986;12.106;2022-11-20T02:59:38;2.90;;;1.90;;
15818;SDS011;8010;53.986;12.106;2022-11-20T03:02:03;2.60;;;1.90;;
15818;SDS011;8010;53.986;12.106;2022-11-20T03:04:29;3.27;;;1.60;;
15818;SDS011;8010;53.986;12.106;2022-11-20T03:06:55;2.90;;;2.00;;
15818;SDS011;8010;53.986;12.106;2022-11-20T03:09:21;3.23;;;1.70;;
15818;SDS011;8010;53.986;12.106;2022-11-20T03:11:46;2.57;;;1.53;;
15818;SDS011;8010;53.986;12.106;2022-11-20T03:14:12;2.50;;;2.00;;
15818;SDS011;8010;53.986;12.106;2022-11-20T03:16:38;3.20;;;2.10;;
15818;SDS011;8010;53.986;12.106;2022-11-20T03:19:03;3.33;;;2.33;;
15818;SDS011;8010;53.986;12.106;2022-11-20T03:21:29;3.60;;;2.33;;
15818;SDS011;8010;53.986;12.106;2022-11-20T03:23:54;5.10;;;2.87;;
15818;SDS011;8010;53.986;12.106;2022-11-20T03:26:22;4.23;;;3.40;;
15818;SDS011;8010;53.986;12.106;2022-11-20T03:28:50;6.73;;;3.83;;
15818;SDS011;8010;53.986;12.106;2022-11-20T03:31:20;6.33;;;4.20;;
15818;SDS011;8010;53.986;12.106;2022-11-20T03:33:48;7.73;;;4.00;;
15818;SDS011;8010;53.986;12.106;2022-11-20T03:36:14;6.83;;;4.03;;
15818;SDS011;8010;53.986;12.106;2022-11-20T03:38:41;6.60;;;3.57;;
15818;SDS011;8010;53.986;12.106;2022-11-20T03:41:08;5.77;;;3.73;;
15818;SDS011;8010;53.986;12.106;2022-11-20T03:43:38;6.27;;;3.73;;
15818;SDS011;8010;53.986;12.106;2022-11-20T03:46:04;6.30;;;4.10;;
15818;SDS011;8010;53.986;12.106;2022-11-20T03:48:30;8.27;;;4.17;;
15818;SDS011;8010;53.986;12.106;2022-11-20T03:51:12;6.90;;;3.97;;
15818;SDS011;8010;53.986;12.106;2022-11-20T03:53:41;7.03;;;3.97;;
15818;SDS011;8010;53.986;12.106;2022-11-20T03:56:08;6.87;;;3.93;;
15818;SDS011;8010;53.986;12.106;2022-11-20T03:58:35;7.70;;;4.43;;
15818;SDS011;8010;53.986;12.106;2022-11-20T04:01:09;7.13;;;4.50;;
15818;SDS011;8010;53.986;12.106;2022-11-20T04:03:37;6.43;;;4.37;;
15818;SDS011;8010;53.986;12.106;2022-11-20T04:06:05;7.63;;;3.67;;
15818;SDS011;8010;53.986;12.106;2022-11-20T04:08:33;6.03;;;4.30;;
15818;SDS011;8010;53.986;12.106;2022-11-20T04:11:12;5.13;;;3.73;;
15818;SDS011;8010;53.986;12.106;2022-11-20T04:13:38;6.57;;;3.90;;
15818;SDS011;8010;53.986;12.106;2022-11-20T04:16:07;5.07;;;3.23;;
15818;SDS011;8010;53.986;12.106;2022-11-20T04:18:34;4.47;;;2.60;;
15818;SDS011;8010;53.986;12.106;2022-11-20T04:21:00;4.10;;;3.00;;
15818;SDS011;8010;53.986;12.106;2022-11-20T04:23:26;4.47;;;2.47;;
15818;SDS011;8010;53.986;12.106;2022-11-20T04:25:52;4.40;;;2.50;;
15818;SDS011;8010;53.986;12.106;2022-11-20T04:28:17;3.30;;;2.07;;
15818;SDS011;8010;53.986;12.106;2022-11-20T04:30:43;4.90;;;1.90;;
15818;SDS011;8010;53.986;12.106;2022-11-20T04:33:09;3.07;;;1.73;;
15818;SDS011;8010;53.986;12.106;2022-11-20T04:35:35;2.37;;;1.90;;
15818;SDS011;8010;53.986;12.106;2022-11-20T04:38:01;1.83;;;1.50;;
15818;SDS011;8010;53.986;12.106;2022-11-20T04:40:30;1.90;;;1.70;;
15818;SDS011;8010;53.986;12.106;2022-11-20T04:42:55;1.90;;;1.40;;
15818;SDS011;8010;53.986;12.106;2022-11-20T04:45:22;2.13;;;1.20;;
15818;SDS011;8010;53.986;12.106;2022-11-20T04:47:48;2.30;;;1.30;;
15818;SDS011;8010;53.986;12.106;2022-11-20T04:50:14;2.60;;;1.77;;
15818;SDS011;8010;53.986;12.106;2022-11-20T04:52:39;1.90;;;1.10;;
15818;SDS011;8010;53.986;12.106;2022-11-20T04:55:05;1.73;;;1.10;;
15818;SDS011;8010;53.986;12.106;2022-11-20T04:57:31;2.23;;;1.30;;
15818;SDS011;8010;53.986;12.106;2022-11-20T04:59:56;2.23;;;1.43;;
15818;SDS011;8010;53.986;12.106;2022-11-20T05:02:22;1.57;;;1.40;;
15818;SDS011;8010;53.986;12.106;2022-11-20T05:04:48;2.00;;;1.40;;
15818;SDS011;8010;53.986;12.106;2022-11-20T05:07:13;2.90;;;1.50;;
15818;SDS011;8010;53.986;12.106;2022-11-20T05:09:39;2.20;;;1.60;;
15818;SDS011;8010;53.986;12.106;2022-11-20T05:12:06;2.03;;;1.50;;
15818;SDS011;8010;53.986;12.106;2022-11-20T05:14:33;2.37;;;1.50;;
15818;SDS011;8010;53.986;12.106;2022-11-20T05:16:58;2.20;;;1.57;;
15818;SDS011;8010;53.986;12.106;2022-11-20T05:19:24;2.67;;;1.30;;
15818;SDS011;8010;53.986;12.106;2022-11-20T05:21:50;3.03;;;1.83;;
15818;SDS011;8010;53.986;12.106;2022-11-20T05:24:15;2.37;;;1.50;;
15818;SDS011;8010;53.986;12.106;2022-11-20T05:26:41;2.47;;;1.40;;
15818;SDS011;8010;53.986;12.106;2022-11-20T05:29:08;3.20;;;1.30;;
15818;SDS011;8010;53.986;12.106;2022-11-20T05:31:35;2.20;;;1.60;;
15818;SDS011;8010;53.986;12.106;2022-11-20T05:34:02;2.37;;;1.70;;
15818;SDS011;8010;53.986;12.106;2022-11-20T05:36:27;2.73;;;1.37;;
15818;SDS011;8010;53.986;12.106;2022-11-20T05:38:53;2.67;;;1.70;;
15818;SDS011;8010;53.986;12.106;2022-11-20T05:41:19;1.70;;;1.30;;
15818;SDS011;8010;53.986;12.106;2022-11-20T05:43:45;3.33;;;2.03;;
15818;SDS011;8010;53.986;12.106;2022-11-20T05:46:13;2.93;;;1.90;;
15818;SDS011;8010;53.986;12.106;2022-11-20T05:48:40;2.40;;;1.50;;
15818;SDS011;8010;53.986;12.106;2022-11-20T05:51:07;3.13;;;2.00;;
15818;SDS011;8010;53.986;12.106;2022-11-20T05:53:34;3.43;;;2.13;;
15818;SDS011;8010;53.986;12.106;2022-11-20T05:56:02;2.80;;;1.97;;
15818;SDS011;8010;53.986;12.106;2022-11-20T05:58:32;2.80;;;1.83;;
15818;SDS011;8010;53.986;12.106;2022-11-20T06:01:14;3.90;;;2.10;;
15818;SDS011;8010;53.986;12.106;2022-11-20T06:03:48;2.87;;;1.90;;
15818;SDS011;8010;53.986;12.106;2022-11-20T06:06:15;3.47;;;2.20;;
15818;SDS011;8010;53.986;12.106;2022-11-20T06:08:41;2.90;;;1.90;;
15818;SDS011;8010;53.986;12.106;2022-11-20T06:11:08;3.17;;;2.23;;
15818;SDS011;8010;53.986;12.106;2022-11-20T06:13:36;3.57;;;2.23;;
15818;SDS011;8010;53.986;12.106;2022-11-20T06:16:02;3.33;;;2.20;;
15818;SDS011;8010;53.986;12.106;2022-11-20T06:18:30;4.07;;;2.53;;
15818;SDS011;8010;53.986;12.106;2022-11-20T06:21:00;3.53;;;2.07;;
15818;SDS011;8010;53.986;12.106;2022-11-20T06:23:30;4.07;;;2.60;;
15818;SDS011;8010;53.986;12.106;2022-11-20T06:25:57;3.43;;;2.33;;
15818;SDS011;8010;53.986;12.106;2022-11-20T06:28:26;4.87;;;2.67;;
15818;SDS011;8010;53.986;12.106;2022-11-20T06:30:51;3.00;;;2.07;;
15818;SDS011;8010;53.986;12.106;2022-11-20T06:33:17;4.10;;;2.10;;
15818;SDS011;8010;53.986;12.106;2022-11-20T06:35:42;3.37;;;2.17;;
15818;SDS011;8010;53.986;12.106;2022-11-20T06:38:08;2.97;;;1.93;;
15818;SDS011;8010;53.986;12.106;2022-11-20T06:40:33;3.47;;;2.40;;
15818;SDS011;8010;53.986;12.106;2022-11-20T06:42:59;3.33;;;2.20;;
15818;SDS011;8010;53.986;12.106;2022-11-20T06:45:24;2.97;;;1.87;;
15818;SDS011;8010;53.986;12.106;2022-11-20T06:47:50;2.93;;;2.07;;
15818;SDS011;8010;53.986;12.106;2022-11-20T06:50:16;3.70;;;2.33;;
15818;SDS011;8010;53.986;12.106;2022-11-20T06:52:41;2.93;;;1.90;;
15818;SDS011;8010;53.986;12.106;2022-11-20T06:55:07;3.20;;;2.27;;
15818;SDS011;8010;53.986;12.106;2022-11-20T06:57:32;3.47;;;2.17;;
15818;SDS011;8010;53.986;12.106;2022-11-20T06:59:58;3.33;;;2.40;;
15818;SDS011;8010;53.986;12.106;2022-11-20T07:02:23;3.20;;;2.00;;
15818;SDS011;8010;53.986;12.106;2022-11-20T07:04:49;3.00;;;1.80;;
15818;SDS011;8010;53.986;12.106;2022-11-20T07:07:15;2.63;;;1.80;;
15818;SDS011;8010;53.986;12.106;2022-11-20T07:09:40;3.67;;;1.80;;
15818;SDS011;8010;53.986;12.106;2022-11-20T07:12:06;4.00;;;1.90;;
15818;SDS011;8010;53.986;12.106;2022-11-20T07:14:31;2.90;;;1.70;;
15818;SDS011;8010;53.986;12.106;2022-11-20T07:16:57;3.17;;;1.90;;
15818;SDS011;8010;53.986;12.106;2022-11-20T07:19:22;2.43;;;1.83;;
15818;SDS011;8010;53.986;12.106;2022-11-20T07:21:48;2.73;;;2.00;;
15818;SDS011;8010;53.986;12.106;2022-11-20T07:24:13;2.90;;;2.23;;
15818;SDS011;8010;53.986;12.106;2022-11-20T07:26:39;3.43;;;1.97;;
15818;SDS011;8010;53.986;12.106;2022-11-20T07:29:04;2.67;;;1.70;;
15818;SDS011;8010;53.986;12.106;2022-11-20T07:31:30;2.90;;;1.90;;
15818;SDS011;8010;53.986;12.106;2022-11-20T07:33:55;1.97;;;1.30;;
15818;SDS011;8010;53.986;12.106;2022-11-20T07:36:21;2.70;;;1.80;;
15818;SDS011;8010;53.986;12.106;2022-11-20T07:38:46;2.23;;;1.40;;
15818;SDS011;8010;53.986;12.106;2022-11-20T07:41:12;2.43;;;1.67;;
15818;SDS011;8010;53.986;12.106;2022-11-20T07:43:37;2.60;;;1.80;;
15818;SDS011;8010;53.986;12.106;2022-11-20T07:46:03;2.53;;;1.50;;
15818;SDS011;8010;53.986;12.106;2022-11-20T07:48:29;3.03;;;1.87;;
15818;SDS011;8010;53.986;12.106;2022-11-20T07:50:57;2.60;;;1.70;;
15818;SDS011;8010;53.986;12.106;2022-11-20T07:53:23;2.23;;;1.47;;
15818;SDS011;8010;53.986;12.106;2022-11-20T07:55:49;2.73;;;1.60;;
15818;SDS011;8010;53.986;12.106;2022-11-20T07:58:17;1.40;;;1.13;;
15818;SDS011;8010;53.986;12.106;2022-11-20T08:00:43;2.03;;;1.53;;
15818;SDS011;8010;53.986;12.106;2022-11-20T08:03:09;1.97;;;1.50;;
15818;SDS011;8010;53.986;12.106;2022-11-20T08:05:35;1.83;;;1.43;;
15818;SDS011;8010;53.986;12.106;2022-11-20T08:08:00;1.60;;;1.20;;
15818;SDS011;8010;53.986;12.106;2022-11-20T08:10:26;1.63;;;1.43;;
15818;SDS011;8010;53.986;12.106;2022-11-20T08:12:52;2.17;;;1.57;;
15818;SDS011;8010;53.986;12.106;2022-11-20T08:15:37;2.23;;;1.50;;
15818;SDS011;8010;53.986;12.106;2022-11-20T08:18:05;1.63;;;1.20;;
15818;SDS011;8010;53.986;12.106;2022-11-20T08:20:32;2.80;;;1.13;;
15818;SDS011;8010;53.986;12.106;2022-11-20T08:23:00;2.37;;;1.37;;
15818;SDS011;8010;53.986;12.106;2022-11-20T08:25:26;3.03;;;1.30;;
15818;SDS011;8010;53.986;12.106;2022-11-20T08:27:53;1.60;;;1.30;;
15818;SDS011;8010;53.986;12.106;2022-11-20T08:30:18;1.93;;;1.50;;
15818;SDS011;8010;53.986;12.106;2022-11-20T08:32:44;1.87;;;1.37;;
15818;SDS011;8010;53.986;12.106;2022-11-20T08:35:09;1.47;;;1.20;;
15818;SDS011;8010;53.986;12.106;2022-11-20T08:37:35;2.07;;;1.33;;
15818;SDS011;8010;53.986;12.106;2022-11-20T08:40:02;1.73;;;1.43;;
15818;SDS011;8010;53.986;12.106;2022-11-20T08:42:28;2.17;;;1.60;;
15818;SDS011;8010;53.986;12.106;2022-11-20T08:44:53;2.00;;;1.50;;
15818;SDS011;8010;53.986;12.106;2022-11-20T08:47:19;2.13;;;1.30;;
15818;SDS011;8010;53.986;12.106;2022-11-20T08:49:44;2.40;;;1.67;;
15818;SDS011;8010;53.986;12.106;2022-11-20T08:52:10;2.00;;;1.33;;
15818;SDS011;8010;53.986;12.106;2022-11-20T08:54:35;2.10;;;1.50;;
15818;SDS011;8010;53.986;12.106;2022-11-20T08:57:01;2.03;;;1.50;;
15818;SDS011;8010;53.986;12.106;2022-11-20T08:59:26;1.70;;;1.27;;
15818;SDS011;8010;53.986;12.106;2022-11-20T09:01:52;2.03;;;1.30;;
15818;SDS011;8010;53.986;12.106;2022-11-20T09:04:17;1.87;;;1.53;;
15818;SDS011;8010;53.986;12.106;2022-11-20T09:06:43;1.87;;;1.10;;
15818;SDS011;8010;53.986;12.106;2022-11-20T09:09:09;1.90;;;1.40;;
15818;SDS011;8010;53.986;12.106;2022-11-20T09:11:34;1.70;;;1.50;;
15818;SDS011;8010;53.986;12.106;2022-11-20T09:14:00;2.30;;;1.60;;
15818;SDS011;8010;53.986;12.106;2022-11-20T09:16:27;2.40;;;1.50;;
15818;SDS011;8010;53.986;12.106;2022-11-20T09:18:53;2.23;;;1.57;;
15818;SDS011;8010;53.986;12.106;2022-11-20T09:21:18;2.17;;;1.60;;
15818;SDS011;8010;53.986;12.106;2022-11-20T09:23:44;2.60;;;1.73;;
15818;SDS011;8010;53.986;12.106;2022-11-20T09:26:11;1.60;;;1.43;;
15818;SDS011;8010;53.986;12.106;2022-11-20T09:28:38;1.90;;;1.50;;
15818;SDS011;8010;53.986;12.106;2022-11-20T09:31:07;1.83;;;1.43;;
15818;SDS011;8010;53.986;12.106;2022-11-20T09:33:35;1.97;;;1.50;;
15818;SDS011;8010;53.986;12.106;2022-11-20T09:36:00;2.03;;;1.47;;
15818;SDS011;8010;53.986;12.106;2022-11-20T09:38:26;2.27;;;1.30;;
15818;SDS011;8010;53.986;12.106;2022-11-20T09:46:20;1.90;;;1.43;;
15818;SDS011;8010;53.986;12.106;2022-11-20T09:52:04;1.97;;;1.23;;
15818;SDS011;8010;53.986;12.106;2022-11-20T09:55:02;1.30;;;1.10;;
15818;SDS011;8010;53.986;12.106;2022-11-20T09:57:36;1.70;;;1.20;;
15818;SDS011;8010;53.986;12.106;2022-11-20T10:00:04;1.57;;;1.30;;
15818;SDS011;8010;53.986;12.106;2022-11-20T10:05:19;1.27;;;1.10;;
15818;SDS011;8010;53.986;12.106;2022-11-20T10:08:02;1.63;;;1.20;;
15818;SDS011;8010;53.986;12.106;2022-11-20T10:10:36;1.37;;;1.10;;
15818;SDS011;8010;53.986;12.106;2022-11-20T10:13:15;1.83;;;1.47;;
15818;SDS011;8010;53.986;12.106;2022-11-20T10:18:57;1.50;;;1.07;;
15818;SDS011;8010;53.986;12.106;2022-11-20T10:21:52;1.63;;;1.20;;
15818;SDS011;8010;53.986;12.106;2022-11-20T10:30:10;2.00;;;1.47;;
15818;SDS011;8010;53.986;12.106;2022-11-20T10:32:45;1.40;;;1.20;;
15818;SDS011;8010;53.986;12.106;2022-11-20T10:37:40;1.67;;;1.50;;
15818;SDS011;8010;53.986;12.106;2022-11-20T10:43:00;1.60;;;1.33;;
15818;SDS011;8010;53.986;12.106;2022-11-20T10:45:33;1.90;;;1.40;;
15818;SDS011;8010;53.986;12.106;2022-11-20T10:48:22;1.83;;;1.50;;
15818;SDS011;8010;53.986;12.106;2022-11-20T10:51:05;2.87;;;1.77;;
15818;SDS011;8010;53.986;12.106;2022-11-20T10:56:51;1.80;;;1.50;;
15818;SDS011;8010;53.986;12.106;2022-11-20T11:02:20;3.13;;;1.10;;
15818;SDS011;8010;53.986;12.106;2022-11-20T11:04:55;2.60;;;1.33;;
15818;SDS011;8010;53.986;12.106;2022-11-20T11:09:49;1.53;;;1.10;;
15818;SDS011;8010;53.986;12.106;2022-11-20T11:12:19;1.73;;;1.40;;
15818;SDS011;8010;53.986;12.106;2022-11-20T11:17:27;2.40;;;1.77;;
15818;SDS011;8010;53.986;12.106;2022-11-20T11:20:18;3.20;;;2.10;;
15818;SDS011;8010;53.986;12.106;2022-11-20T11:22:45;2.33;;;1.70;;
15818;SDS011;8010;53.986;12.106;2022-11-20T11:25:29;3.07;;;2.00;;
15818;SDS011;8010;53.986;12.106;2022-11-20T11:27:59;2.80;;;1.80;;
15818;SDS011;8010;53.986;12.106;2022-11-20T11:30:44;2.67;;;1.90;;
15818;SDS011;8010;53.986;12.106;2022-11-20T11:33:11;1.87;;;1.57;;
15818;SDS011;8010;53.986;12.106;2022-11-20T11:35:45;2.20;;;1.60;;
15818;SDS011;8010;53.986;12.106;2022-11-20T11:38:14;2.93;;;2.20;;
15818;SDS011;8010;53.986;12.106;2022-11-20T11:40:43;3.80;;;2.20;;
15818;SDS011;8010;53.986;12.106;2022-11-20T11:43:22;2.80;;;2.10;;
15818;SDS011;8010;53.986;12.106;2022-11-20T11:51:49;5.43;;;3.30;;
15818;SDS011;8010;53.986;12.106;2022-11-20T11:54:23;4.33;;;3.30;;
15818;SDS011;8010;53.986;12.106;2022-11-20T11:57:00;4.83;;;3.70;;
15818;SDS011;8010;53.986;12.106;2022-11-20T12:02:38;4.53;;;3.40;;
15818;SDS011;8010;53.986;12.106;2022-11-20T12:07:52;3.63;;;2.57;;
15818;SDS011;8010;53.986;12.106;2022-11-20T12:10:45;3.07;;;2.37;;
15818;SDS011;8010;53.986;12.106;2022-11-20T12:13:12;3.37;;;2.63;;
15818;SDS011;8010;53.986;12.106;2022-11-20T12:15:52;3.80;;;2.73;;
15818;SDS011;8010;53.986;12.106;2022-11-20T12:18:18;3.67;;;2.50;;
15818;SDS011;8010;53.986;12.106;2022-11-20T12:20:55;2.97;;;2.23;;
15818;SDS011;8010;53.986;12.106;2022-11-20T12:26:49;3.27;;;2.47;;
15818;SDS011;8010;53.986;12.106;2022-11-20T12:29:37;3.57;;;2.60;;
15818;SDS011;8010;53.986;12.106;2022-11-20T12:35:14;2.63;;;2.13;;
15818;SDS011;8010;53.986;12.106;2022-11-20T12:41:00;2.73;;;1.93;;
15818;SDS011;8010;53.986;12.106;2022-11-20T12:43:47;2.93;;;2.03;;
15818;SDS011;8010;53.986;12.106;2022-11-20T12:46:52;3.77;;;2.30;;
15818;SDS011;8010;53.986;12.106;2022-11-20T12:49:32;3.07;;;2.40;;
15818;SDS011;8010;53.986;12.106;2022-11-20T12:54:46;3.33;;;2.63;;
15818;SDS011;8010;53.986;12.106;2022-11-20T13:00:18;3.03;;;1.97;;
15818;SDS011;8010;53.986;12.106;2022-11-20T13:11:07;2.50;;;2.00;;
15818;SDS011;8010;53.986;12.106;2022-11-20T13:19:11;3.03;;;2.10;;
15818;SDS011;8010;53.986;12.106;2022-11-20T13:21:40;2.47;;;2.10;;
15818;SDS011;8010;53.986;12.106;2022-11-20T13:24:19;2.70;;;2.20;;
15818;SDS011;8010;53.986;12.106;2022-11-20T13:26:59;2.23;;;2.03;;
15818;SDS011;8010;53.986;12.106;2022-11-20T13:29:34;3.20;;;2.30;;
15818;SDS011;8010;53.986;12.106;2022-11-20T13:32:06;3.03;;;2.17;;
15818;SDS011;8010;53.986;12.106;2022-11-20T13:34:38;2.93;;;2.17;;
15818;SDS011;8010;53.986;12.106;2022-11-20T13:37:24;3.30;;;2.10;;
15818;SDS011;8010;53.986;12.106;2022-11-20T13:39:52;2.33;;;2.13;;
15818;SDS011;8010;53.986;12.106;2022-11-20T13:44:47;3.13;;;2.00;;
15818;SDS011;8010;53.986;12.106;2022-11-20T13:47:27;1.87;;;1.70;;
15818;SDS011;8010;53.986;12.106;2022-11-20T13:49:57;4.60;;;2.00;;
15818;SDS011;8010;53.986;12.106;2022-11-20T13:52:39;2.30;;;1.80;;
15818;SDS011;8010;53.986;12.106;2022-11-20T13:55:19;2.03;;;1.83;;
15818;SDS011;8010;53.986;12.106;2022-11-20T13:57:59;2.67;;;1.80;;
15818;SDS011;8010;53.986;12.106;2022-11-20T14:00:27;2.20;;;1.70;;
15818;SDS011;8010;53.986;12.106;2022-11-20T14:05:31;2.50;;;2.00;;
15818;SDS011;8010;53.986;12.106;2022-11-20T14:08:00;1.87;;;1.60;;
15818;SDS011;8010;53.986;12.106;2022-11-20T14:10:30;1.83;;;1.67;;
15818;SDS011;8010;53.986;12.106;2022-11-20T14:12:56;2.47;;;1.73;;
15818;SDS011;8010;53.986;12.106;2022-11-20T14:15:24;2.47;;;1.60;;
15818;SDS011;8010;53.986;12.106;2022-11-20T14:17:51;2.47;;;1.93;;
15818;SDS011;8010;53.986;12.106;2022-11-20T14:20:16;2.20;;;1.80;;
15818;SDS011;8010;53.986;12.106;2022-11-20T14:22:48;2.10;;;1.80;;
15818;SDS011;8010;53.986;12.106;2022-11-20T14:27:42;1.70;;;1.33;;
15818;SDS011;8010;53.986;12.106;2022-11-20T14:30:13;1.60;;;1.50;;
15818;SDS011;8010;53.986;12.106;2022-11-20T14:32:50;3.13;;;2.20;;
15818;SDS011;8010;53.986;12.106;2022-11-20T14:35:26;2.50;;;1.90;;
15818;SDS011;8010;53.986;12.106;2022-11-20T14:37:58;3.33;;;2.23;;
15818;SDS011;8010;53.986;12.106;2022-11-20T14:40:28;2.60;;;2.00;;
15818;SDS011;8010;53.986;12.106;2022-11-20T14:43:00;2.17;;;1.63;;
15818;SDS011;8010;53.986;12.106;2022-11-20T14:45:26;2.07;;;1.87;;
15818;SDS011;8010;53.986;12.106;2022-11-20T14:47:53;2.23;;;1.80;;
15818;SDS011;8010;53.986;12.106;2022-11-20T14:50:23;1.87;;;1.50;;
15818;SDS011;8010;53.986;12.106;2022-11-20T14:52:54;2.57;;;1.73;;
15818;SDS011;8010;53.986;12.106;2022-11-20T14:55:32;2.20;;;1.77;;
15818;SDS011;8010;53.986;12.106;2022-11-20T14:58:03;2.30;;;1.70;;
15818;SDS011;8010;53.986;12.106;2022-11-20T15:00:31;2.00;;;1.60;;
15818;SDS011;8010;53.986;12.106;2022-11-20T15:02:58;2.33;;;1.60;;
15818;SDS011;8010;53.986;12.106;2022-11-20T15:05:44;2.20;;;1.60;;
15818;SDS011;8010;53.986;12.106;2022-11-20T15:08:12;2.10;;;1.57;;
15818;SDS011;8010;53.986;12.106;2022-11-20T15:10:38;1.93;;;1.57;;
15818;SDS011;8010;53.986;12.106;2022-11-20T15:13:13;1.57;;;1.47;;
15818;SDS011;8010;53.986;12.106;2022-11-20T15:16:01;2.63;;;2.00;;
15818;SDS011;8010;53.986;12.106;2022-11-20T15:18:29;2.93;;;1.73;;
15818;SDS011;8010;53.986;12.106;2022-11-20T15:21:03;2.10;;;1.73;;
15818;SDS011;8010;53.986;12.106;2022-11-20T15:23:36;2.20;;;1.83;;
15818;SDS011;8010;53.986;12.106;2022-11-20T15:26:04;2.10;;;1.70;;
15818;SDS011;8010;53.986;12.106;2022-11-20T15:28:31;2.27;;;1.70;;
15818;SDS011;8010;53.986;12.106;2022-11-20T15:31:10;2.23;;;1.63;;
15818;SDS011;8010;53.986;12.106;2022-11-20T15:33:37;1.83;;;1.57;;
15818;SDS011;8010;53.986;12.106;2022-11-20T15:36:03;2.47;;;1.70;;
15818;SDS011;8010;53.986;12.106;2022-11-20T15:38:29;3.47;;;2.20;;
15818;SDS011;8010;53.986;12.106;2022-11-20T15:40:55;2.67;;;2.17;;
15818;SDS011;8010;53.986;12.106;2022-11-20T15:43:21;2.93;;;2.50;;
15818;SDS011;8010;53.986;12.106;2022-11-20T15:45:53;3.33;;;2.30;;
15818;SDS011;8010;53.986;12.106;2022-11-20T15:48:27;4.50;;;1.87;;
15818;SDS011;8010;53.986;12.106;2022-11-20T15:53:37;2.40;;;2.00;;
15818;SDS011;8010;53.986;12.106;2022-11-20T15:56:07;2.50;;;1.77;;
15818;SDS011;8010;53.986;12.106;2022-11-20T15:58:38;2.00;;;1.63;;
15818;SDS011;8010;53.986;12.106;2022-11-20T16:01:04;3.20;;;1.93;;
15818;SDS011;8010;53.986;12.106;2022-11-20T16:03:29;2.43;;;2.07;;
15818;SDS011;8010;53.986;12.106;2022-11-20T16:05:55;2.33;;;1.90;;
15818;SDS011;8010;53.986;12.106;2022-11-20T16:08:20;2.53;;;1.80;;
15818;SDS011;8010;53.986;12.106;2022-11-20T16:10:46;2.40;;;1.80;;
15818;SDS011;8010;53.986;12.106;2022-11-20T16:13:12;2.27;;;1.63;;
15818;SDS011;8010;53.986;12.106;2022-11-20T16:15:58;2.80;;;1.73;;
15818;SDS011;8010;53.986;12.106;2022-11-20T16:18:26;3.20;;;2.30;;
15818;SDS011;8010;53.986;12.106;2022-11-20T16:20:52;3.00;;;2.13;;
15818;SDS011;8010;53.986;12.106;2022-11-20T16:23:18;3.10;;;2.10;;
15818;SDS011;8010;53.986;12.106;2022-11-20T16:25:45;2.83;;;2.53;;
15818;SDS011;8010;53.986;12.106;2022-11-20T16:28:12;3.93;;;2.33;;
15818;SDS011;8010;53.986;12.106;2022-11-20T16:30:37;3.10;;;1.83;;